Time;durP1;ratioP1;P1;durP2;ratioP2;P2;SDS_P1;SDS_P2;PMS_P1;PMS_P2;Temp;Humidity;BMP_temperature;BMP_pressure;BME280_temperature;BME280_humidity;BME280_pressure;Samples;Min_cycle;Max_cycle;Signal;HPM_P1;HPM_P2
2022/10/08 00:01:09;;;;;;;8.77;2.58;;;;;;;;;;5072687;28;20036;-66
2022/10/08 00:03:38;;;;;;;9.75;2.72;;;;;;;;;;5065364;28;20487;-67
2022/10/08 00:06:05;;;;;;;11.48;2.78;;;;;;;;;;5072521;28;20048;-66
2022/10/08 00:08:32;;;;;;;8.45;2.63;;;;;;;;;;5067364;28;20097;-67
2022/10/08 00:11:00;;;;;;;12.88;2.65;;;;;;;;;;5061921;28;20045;-68
2022/10/08 00:13:26;;;;;;;7.90;2.67;;;;;;;;;;5065776;28;20544;-67
2022/10/08 00:15:53;;;;;;;11.38;2.80;;;;;;;;;;5076642;28;20051;-67
2022/10/08 00:18:20;;;;;;;12.00;2.60;;;;;;;;;;5074195;28;20059;-67
2022/10/08 00:20:46;;;;;;;13.20;3.03;;;;;;;;;;5071713;28;20079;-67
2022/10/08 00:23:12;;;;;;;14.65;3.15;;;;;;;;;;5073777;28;20418;-67
2022/10/08 00:25:42;;;;;;;9.27;2.85;;;;;;;;;;5070878;28;20114;-67
2022/10/08 00:28:12;;;;;;;12.27;3.53;;;;;;;;;;5073694;28;20052;-67
2022/10/08 00:30:39;;;;;;;9.77;2.78;;;;;;;;;;5073126;28;20044;-67
2022/10/08 00:33:06;;;;;;;11.73;3.35;;;;;;;;;;5061968;28;20040;-67
2022/10/08 00:35:39;;;;;;;11.20;2.72;;;;;;;;;;5068222;28;20040;-67
2022/10/08 00:38:06;;;;;;;9.63;3.20;;;;;;;;;;5067802;28;20047;-66
2022/10/08 00:40:32;;;;;;;9.52;2.90;;;;;;;;;;5072131;28;20072;-67
2022/10/08 00:42:59;;;;;;;11.82;3.00;;;;;;;;;;5072250;28;20047;-67
2022/10/08 00:45:25;;;;;;;12.10;3.10;;;;;;;;;;5072443;28;20044;-67
2022/10/08 00:47:52;;;;;;;11.40;3.38;;;;;;;;;;5073304;28;20520;-66
2022/10/08 00:50:20;;;;;;;14.10;3.03;;;;;;;;;;5069803;28;20055;-66
2022/10/08 00:52:48;;;;;;;10.50;3.30;;;;;;;;;;5069248;28;20087;-66
2022/10/08 00:55:15;;;;;;;13.77;3.40;;;;;;;;;;5071578;28;20045;-66
2022/10/08 00:57:42;;;;;;;9.77;3.15;;;;;;;;;;5071915;28;20032;-65
2022/10/08 01:00:10;;;;;;;12.43;3.30;;;;;;;;;;5072444;28;20041;-66
2022/10/08 01:02:37;;;;;;;11.40;3.70;;;;;;;;;;5071584;28;20040;-66
2022/10/08 01:05:04;;;;;;;11.95;4.13;;;;;;;;;;5071144;28;20071;-66
2022/10/08 01:07:42;;;;;;;10.05;3.45;;;;;;;;;;5071462;28;20051;-66
2022/10/08 01:10:18;;;;;;;10.98;3.75;;;;;;;;;;5071894;28;20036;-66
2022/10/08 01:13:02;;;;;;;8.85;3.35;;;;;;;;;;5072719;28;20087;-66
2022/10/08 01:15:36;;;;;;;8.85;3.00;;;;;;;;;;5071171;28;20072;-66
2022/10/08 01:18:11;;;;;;;8.95;3.63;;;;;;;;;;5071963;28;20054;-66
2022/10/08 01:20:40;;;;;;;9.95;3.67;;;;;;;;;;5071074;28;20028;-66
2022/10/08 01:23:25;;;;;;;9.00;3.15;;;;;;;;;;5072387;28;20047;-66
2022/10/08 01:25:51;;;;;;;10.48;2.90;;;;;;;;;;5058954;28;20041;-65
2022/10/08 01:28:40;;;;;;;8.52;3.33;;;;;;;;;;5068855;28;20043;-66
2022/10/08 01:31:14;;;;;;;8.52;2.88;;;;;;;;;;5058807;28;20053;-66
2022/10/08 01:33:49;;;;;;;9.40;3.30;;;;;;;;;;5069021;28;20537;-66
2022/10/08 01:36:17;;;;;;;8.07;3.45;;;;;;;;;;5066122;28;20052;-65
2022/10/08 01:38:46;;;;;;;8.48;3.10;;;;;;;;;;5069527;28;20041;-66
2022/10/08 01:41:13;;;;;;;7.10;2.85;;;;;;;;;;5069493;28;20044;-66
2022/10/08 01:43:42;;;;;;;8.02;3.28;;;;;;;;;;5070322;28;20128;-66
2022/10/08 01:46:35;;;;;;;7.25;3.72;;;;;;;;;;5071043;28;20478;-65
2022/10/08 01:49:06;;;;;;;8.18;3.53;;;;;;;;;;5063951;28;20060;-65
2022/10/08 01:51:33;;;;;;;8.63;3.42;;;;;;;;;;5066428;28;20494;-66
2022/10/08 01:54:02;;;;;;;6.40;3.53;;;;;;;;;;5071024;28;20040;-66
2022/10/08 01:56:29;;;;;;;9.30;3.58;;;;;;;;;;5068379;28;20073;-66
2022/10/08 01:58:57;;;;;;;8.82;3.58;;;;;;;;;;5063166;28;20132;-65
2022/10/08 02:01:28;;;;;;;9.82;3.92;;;;;;;;;;5040773;28;20040;-66
2022/10/08 02:06:42;;;;;;;4.68;3.38;;;;;;;;;;5041027;28;20052;-66
2022/10/08 02:09:09;;;;;;;6.30;3.58;;;;;;;;;;5046972;28;20044;-66
2022/10/08 02:11:35;;;;;;;5.80;3.50;;;;;;;;;;5056587;28;20040;-66
2022/10/08 02:14:01;;;;;;;6.13;3.40;;;;;;;;;;5070778;28;20032;-66
2022/10/08 02:16:29;;;;;;;7.68;3.47;;;;;;;;;;5069077;28;20028;-66
2022/10/08 02:19:07;;;;;;;8.45;3.60;;;;;;;;;;5068100;28;20047;-66
2022/10/08 02:21:34;;;;;;;8.07;3.13;;;;;;;;;;5061353;28;20482;-65
2022/10/08 02:24:05;;;;;;;7.03;3.13;;;;;;;;;;5070464;28;20067;-66
2022/10/08 02:26:39;;;;;;;8.40;3.33;;;;;;;;;;5068121;28;20070;-66
2022/10/08 02:29:05;;;;;;;7.93;3.58;;;;;;;;;;5069468;28;20395;-66
2022/10/08 02:31:36;;;;;;;7.00;3.63;;;;;;;;;;5070024;28;20043;-66
2022/10/08 02:34:08;;;;;;;6.35;3.40;;;;;;;;;;5070439;28;20067;-66
2022/10/08 02:36:36;;;;;;;9.73;3.30;;;;;;;;;;5080587;28;20514;-65
2022/10/08 02:39:03;;;;;;;7.82;3.92;;;;;;;;;;5066672;28;20046;-66
2022/10/08 02:41:53;;;;;;;8.25;3.08;;;;;;;;;;5068046;28;20051;-66
2022/10/08 02:44:32;;;;;;;5.25;2.80;;;;;;;;;;5062516;28;20057;-66
2022/10/08 02:46:59;;;;;;;4.78;2.88;;;;;;;;;;5068938;28;20041;-66
2022/10/08 02:49:31;;;;;;;6.28;2.80;;;;;;;;;;5069372;28;20047;-66
2022/10/08 02:51:58;;;;;;;8.60;3.20;;;;;;;;;;5068433;28;20067;-66
2022/10/08 02:54:24;;;;;;;7.75;3.25;;;;;;;;;;5064801;28;20079;-66
2022/10/08 02:56:56;;;;;;;6.57;2.90;;;;;;;;;;5064764;28;20068;-66
2022/10/08 02:59:23;;;;;;;9.88;3.60;;;;;;;;;;5070018;28;20032;-66
2022/10/08 03:01:54;;;;;;;5.45;2.67;;;;;;;;;;5069331;28;20040;-66
2022/10/08 03:04:32;;;;;;;4.60;2.60;;;;;;;;;;5068769;28;20082;-66
2022/10/08 03:06:59;;;;;;;5.20;3.20;;;;;;;;;;5068276;28;20040;-66
2022/10/08 03:09:28;;;;;;;6.75;2.72;;;;;;;;;;5070173;28;20517;-66
2022/10/08 03:11:54;;;;;;;7.03;2.78;;;;;;;;;;5066621;28;20097;-66
2022/10/08 03:14:22;;;;;;;7.50;2.47;;;;;;;;;;5069583;28;20041;-66
2022/10/08 03:16:48;;;;;;;9.18;3.08;;;;;;;;;;5070678;28;20041;-66
2022/10/08 03:19:15;;;;;;;6.00;2.65;;;;;;;;;;5069518;28;20043;-66
2022/10/08 03:21:42;;;;;;;6.63;2.70;;;;;;;;;;5068504;28;20158;-66
2022/10/08 03:24:09;;;;;;;7.78;3.20;;;;;;;;;;5068936;28;20045;-66
2022/10/08 03:26:36;;;;;;;5.50;2.55;;;;;;;;;;5067703;28;20040;-66
2022/10/08 03:29:02;;;;;;;6.60;2.83;;;;;;;;;;5067780;28;20510;-66
2022/10/08 03:31:28;;;;;;;8.20;2.80;;;;;;;;;;5069701;28;20064;-67
2022/10/08 03:33:54;;;;;;;6.50;2.75;;;;;;;;;;5070223;28;20394;-66
2022/10/08 03:36:21;;;;;;;6.55;3.05;;;;;;;;;;5067310;28;20459;-66
2022/10/08 03:38:48;;;;;;;6.43;2.60;;;;;;;;;;5066811;28;20032;-66
2022/10/08 03:41:14;;;;;;;4.50;2.65;;;;;;;;;;5068129;28;20044;-66
2022/10/08 03:43:40;;;;;;;8.38;3.17;;;;;;;;;;5070052;28;20090;-66
2022/10/08 03:46:07;;;;;;;6.80;2.83;;;;;;;;;;5068012;28;20379;-66
2022/10/08 03:48:33;;;;;;;6.72;2.60;;;;;;;;;;5061437;28;20041;-66
2022/10/08 03:51:00;;;;;;;5.88;2.45;;;;;;;;;;5068269;28;20100;-66
2022/10/08 03:53:27;;;;;;;7.30;2.80;;;;;;;;;;5068742;28;20571;-66
2022/10/08 03:55:53;;;;;;;8.15;3.17;;;;;;;;;;5068922;28;20153;-66
2022/10/08 03:58:19;;;;;;;8.45;3.15;;;;;;;;;;5070721;28;20024;-67
2022/10/08 04:00:59;;;;;;;7.00;2.90;;;;;;;;;;5064069;28;20036;-67
2022/10/08 04:03:25;;;;;;;8.48;3.00;;;;;;;;;;5067676;28;20490;-66
2022/10/08 04:05:51;;;;;;;4.95;2.60;;;;;;;;;;5086986;28;20090;-66
2022/10/08 04:08:17;;;;;;;5.68;3.00;;;;;;;;;;5072054;28;20032;-66
2022/10/08 04:10:43;;;;;;;6.78;3.33;;;;;;;;;;5071472;28;20072;-66
2022/10/08 04:13:09;;;;;;;6.80;3.00;;;;;;;;;;5072413;28;20091;-66
2022/10/08 04:15:35;;;;;;;8.63;3.58;;;;;;;;;;5068721;28;20067;-66
2022/10/08 04:18:01;;;;;;;7.80;3.63;;;;;;;;;;5067136;28;20119;-66
2022/10/08 04:20:27;;;;;;;7.05;3.50;;;;;;;;;;5070742;28;20119;-66
2022/10/08 04:22:53;;;;;;;9.52;3.90;;;;;;;;;;5068008;28;20048;-66
2022/10/08 04:25:19;;;;;;;5.68;3.30;;;;;;;;;;5067667;28;20114;-66
2022/10/08 04:27:48;;;;;;;7.50;3.58;;;;;;;;;;5068698;28;20094;-66
2022/10/08 04:30:14;;;;;;;10.93;4.15;;;;;;;;;;5071685;28;20036;-66
2022/10/08 04:32:40;;;;;;;8.95;4.30;;;;;;;;;;5073298;28;20498;-66
2022/10/08 04:35:06;;;;;;;8.40;3.97;;;;;;;;;;5072354;28;20086;-66
2022/10/08 04:37:32;;;;;;;8.57;3.95;;;;;;;;;;5072403;28;20517;-66
2022/10/08 04:39:58;;;;;;;7.32;3.55;;;;;;;;;;5073696;28;20040;-66
2022/10/08 04:42:25;;;;;;;9.85;3.63;;;;;;;;;;5072541;28;20033;-66
2022/10/08 04:44:51;;;;;;;11.93;3.80;;;;;;;;;;5071953;28;20490;-66
2022/10/08 04:47:17;;;;;;;11.75;4.10;;;;;;;;;;5072118;28;20418;-66
2022/10/08 04:49:43;;;;;;;5.57;3.30;;;;;;;;;;5073234;28;20036;-66
2022/10/08 04:52:09;;;;;;;6.72;3.40;;;;;;;;;;5070260;28;20038;-66
2022/10/08 04:54:35;;;;;;;7.18;3.42;;;;;;;;;;5073626;28;20059;-66
2022/10/08 04:57:01;;;;;;;8.88;3.58;;;;;;;;;;5072289;28;20393;-66
2022/10/08 04:59:27;;;;;;;11.70;3.60;;;;;;;;;;5068316;28;20119;-66
2022/10/08 05:01:55;;;;;;;8.88;3.70;;;;;;;;;;5066012;28;20040;-66
2022/10/08 05:04:21;;;;;;;6.18;3.65;;;;;;;;;;5072872;28;20540;-66
2022/10/08 05:06:47;;;;;;;9.15;3.60;;;;;;;;;;5072474;28;20046;-66
2022/10/08 05:09:13;;;;;;;6.47;3.75;;;;;;;;;;5070238;28;20075;-66
2022/10/08 05:11:39;;;;;;;7.43;3.83;;;;;;;;;;5071949;28;20064;-66
2022/10/08 05:14:05;;;;;;;7.30;3.38;;;;;;;;;;5070682;28;20083;-66
2022/10/08 05:16:31;;;;;;;8.15;3.60;;;;;;;;;;5065491;28;20036;-66
2022/10/08 05:18:57;;;;;;;9.73;3.28;;;;;;;;;;5072517;28;20124;-66
2022/10/08 05:21:25;;;;;;;6.35;3.30;;;;;;;;;;5070974;28;20052;-66
2022/10/08 05:23:58;;;;;;;9.35;3.30;;;;;;;;;;5069326;28;20080;-65
2022/10/08 05:26:26;;;;;;;11.88;3.50;;;;;;;;;;5072217;28;20086;-66
2022/10/08 05:28:55;;;;;;;8.57;3.53;;;;;;;;;;5064792;28;20046;-66
2022/10/08 05:31:22;;;;;;;8.60;3.03;;;;;;;;;;5069426;28;20498;-66
2022/10/08 05:33:48;;;;;;;7.85;3.20;;;;;;;;;;5071858;28;20044;-66
2022/10/08 05:36:18;;;;;;;5.97;2.90;;;;;;;;;;5071954;28;20036;-65
2022/10/08 05:38:44;;;;;;;7.40;3.17;;;;;;;;;;5071024;28;20044;-66
2022/10/08 05:41:11;;;;;;;6.45;2.47;;;;;;;;;;5070450;28;20038;-66
2022/10/08 05:43:38;;;;;;;7.95;2.28;;;;;;;;;;5069966;28;20037;-66
2022/10/08 05:46:04;;;;;;;8.88;2.75;;;;;;;;;;5071222;28;20098;-66
2022/10/08 05:48:30;;;;;;;9.30;2.50;;;;;;;;;;5070234;28;20052;-66
2022/10/08 05:50:56;;;;;;;8.15;2.65;;;;;;;;;;5069850;28;20032;-66
2022/10/08 05:53:22;;;;;;;6.97;2.25;;;;;;;;;;5070378;28;20520;-66
2022/10/08 05:55:47;;;;;;;8.27;2.58;;;;;;;;;;5068322;28;20083;-66
2022/10/08 05:58:13;;;;;;;7.63;3.00;;;;;;;;;;5065939;28;20025;-66
2022/10/08 06:00:39;;;;;;;9.43;3.08;;;;;;;;;;5068191;28;20040;-66
2022/10/08 06:03:05;;;;;;;10.45;3.22;;;;;;;;;;5068711;28;20037;-66
2022/10/08 06:05:31;;;;;;;8.52;2.70;;;;;;;;;;5068122;28;20127;-66
2022/10/08 06:07:58;;;;;;;6.75;2.70;;;;;;;;;;5068042;28;20036;-66
2022/10/08 06:10:24;;;;;;;6.18;3.17;;;;;;;;;;5068263;28;20044;-66
2022/10/08 06:12:50;;;;;;;9.38;3.20;;;;;;;;;;5071874;28;20448;-66
2022/10/08 06:15:16;;;;;;;8.65;3.42;;;;;;;;;;5070093;28;20098;-66
2022/10/08 06:17:42;;;;;;;9.63;3.40;;;;;;;;;;5070397;28;20044;-66
2022/10/08 06:20:08;;;;;;;9.55;3.50;;;;;;;;;;5066662;28;20039;-66
2022/10/08 06:22:35;;;;;;;9.65;3.42;;;;;;;;;;5063525;28;20449;-66
2022/10/08 06:25:01;;;;;;;11.15;3.42;;;;;;;;;;5069676;28;20111;-66
2022/10/08 06:27:27;;;;;;;9.93;3.50;;;;;;;;;;5069758;28;20574;-66
2022/10/08 06:29:53;;;;;;;11.55;3.55;;;;;;;;;;5068587;28;20036;-66
2022/10/08 06:32:19;;;;;;;10.05;3.85;;;;;;;;;;5067833;28;20048;-65
2022/10/08 06:34:45;;;;;;;9.60;3.67;;;;;;;;;;5067334;28;20433;-66
2022/10/08 06:37:11;;;;;;;9.20;3.63;;;;;;;;;;5068680;28;20036;-66
2022/10/08 06:39:37;;;;;;;9.48;3.88;;;;;;;;;;5064494;28;20036;-66
2022/10/08 06:42:03;;;;;;;11.98;4.00;;;;;;;;;;5069247;28;20149;-66
2022/10/08 06:44:29;;;;;;;11.90;4.20;;;;;;;;;;5070717;28;20037;-66
2022/10/08 06:46:55;;;;;;;8.00;3.70;;;;;;;;;;5065909;28;20406;-65
2022/10/08 06:49:25;;;;;;;10.38;3.88;;;;;;;;;;5069002;28;20036;-66
2022/10/08 06:51:51;;;;;;;8.23;3.33;;;;;;;;;;5069233;28;20041;-66
2022/10/08 06:54:17;;;;;;;9.73;4.10;;;;;;;;;;5071072;28;20449;-66
2022/10/08 06:56:43;;;;;;;8.10;3.83;;;;;;;;;;5070064;28;20044;-66
2022/10/08 06:59:09;;;;;;;9.38;3.83;;;;;;;;;;5069026;28;20330;-66
2022/10/08 07:01:35;;;;;;;11.02;4.43;;;;;;;;;;5065423;28;20090;-66
2022/10/08 07:04:02;;;;;;;15.00;4.20;;;;;;;;;;5071216;28;20037;-66
2022/10/08 07:06:28;;;;;;;8.23;3.95;;;;;;;;;;5070222;28;20037;-66
2022/10/08 07:08:55;;;;;;;9.73;3.80;;;;;;;;;;5068106;28;20090;-66
2022/10/08 07:11:22;;;;;;;11.52;4.22;;;;;;;;;;5070501;28;20041;-66
2022/10/08 07:13:48;;;;;;;9.88;4.03;;;;;;;;;;5069215;28;20060;-66
2022/10/08 07:16:16;;;;;;;13.00;3.80;;;;;;;;;;5070350;28;20040;-66
2022/10/08 07:18:42;;;;;;;8.32;3.78;;;;;;;;;;5064596;28;20036;-66
2022/10/08 07:21:10;;;;;;;10.05;3.80;;;;;;;;;;5069717;28;20032;-66
2022/10/08 07:23:36;;;;;;;9.38;4.00;;;;;;;;;;5068445;28;20041;-66
2022/10/08 07:26:08;;;;;;;11.45;4.25;;;;;;;;;;5070654;28;20092;-66
2022/10/08 07:28:35;;;;;;;13.27;3.92;;;;;;;;;;5054704;28;20072;-66
2022/10/08 07:31:05;;;;;;;8.80;3.53;;;;;;;;;;5055392;28;20053;-66
2022/10/08 07:33:32;;;;;;;9.85;3.97;;;;;;;;;;5074978;28;20040;-66
2022/10/08 07:36:07;;;;;;;8.40;3.88;;;;;;;;;;5073357;28;20044;-66
2022/10/08 07:38:33;;;;;;;15.15;3.78;;;;;;;;;;5061601;28;20115;-66
2022/10/08 07:40:59;;;;;;;12.35;4.00;;;;;;;;;;5074759;28;20125;-66
2022/10/08 07:43:25;;;;;;;12.93;3.90;;;;;;;;;;5073019;28;20032;-66
2022/10/08 07:45:51;;;;;;;12.35;4.35;;;;;;;;;;5074619;28;20044;-66
2022/10/08 07:48:18;;;;;;;13.00;3.53;;;;;;;;;;5072095;28;20044;-66
2022/10/08 07:50:45;;;;;;;12.27;3.80;;;;;;;;;;5067548;28;20049;-66
2022/10/08 07:53:11;;;;;;;12.10;3.65;;;;;;;;;;5068574;28;20063;-66
2022/10/08 07:55:37;;;;;;;12.77;3.40;;;;;;;;;;5072875;28;20401;-66
2022/10/08 07:58:03;;;;;;;8.07;3.03;;;;;;;;;;5072352;28;20119;-66
2022/10/08 08:00:29;;;;;;;14.02;3.38;;;;;;;;;;5068691;28;20090;-66
2022/10/08 08:02:55;;;;;;;14.02;3.40;;;;;;;;;;5070204;28;20038;-67
2022/10/08 08:05:21;;;;;;;10.60;2.60;;;;;;;;;;5072968;28;20047;-67
2022/10/08 08:07:47;;;;;;;12.52;2.28;;;;;;;;;;5069407;28;20052;-66
2022/10/08 08:10:13;;;;;;;11.02;2.53;;;;;;;;;;5070507;28;20044;-67
2022/10/08 08:12:39;;;;;;;10.60;2.53;;;;;;;;;;5070618;28;20032;-66
2022/10/08 08:15:06;;;;;;;8.43;2.40;;;;;;;;;;5067052;28;20043;-67
2022/10/08 08:17:33;;;;;;;8.90;1.92;;;;;;;;;;5070881;28;20128;-66
2022/10/08 08:19:59;;;;;;;7.50;2.00;;;;;;;;;;5067332;28;20043;-66
2022/10/08 08:22:25;;;;;;;7.82;1.73;;;;;;;;;;5061656;28;20033;-67
2022/10/08 08:24:51;;;;;;;9.45;2.05;;;;;;;;;;5069519;28;20384;-66
2022/10/08 08:27:17;;;;;;;8.40;1.90;;;;;;;;;;5074001;28;20098;-66
2022/10/08 08:29:43;;;;;;;5.78;1.90;;;;;;;;;;5073101;28;20512;-66
2022/10/08 08:32:09;;;;;;;7.32;1.95;;;;;;;;;;5070722;28;20037;-67
2022/10/08 08:34:35;;;;;;;6.57;1.60;;;;;;;;;;5070478;28;20040;-67
2022/10/08 08:37:01;;;;;;;8.50;1.98;;;;;;;;;;5068307;28;20390;-67
2022/10/08 08:39:29;;;;;;;11.52;1.70;;;;;;;;;;5073191;28;20123;-66
2022/10/08 08:42:12;;;;;;;9.85;1.60;;;;;;;;;;5069874;28;20040;-67
2022/10/08 08:44:42;;;;;;;7.05;1.10;;;;;;;;;;5069373;28;20066;-67
2022/10/08 08:47:18;;;;;;;9.10;1.97;;;;;;;;;;5072494;28;20036;-67
2022/10/08 08:49:49;;;;;;;8.68;1.75;;;;;;;;;;5066672;28;20296;-67
2022/10/08 08:52:17;;;;;;;8.50;1.58;;;;;;;;;;5071916;28;20044;-67
2022/10/08 08:54:48;;;;;;;4.70;1.00;;;;;;;;;;5071655;28;20595;-66
2022/10/08 08:57:16;;;;;;;7.90;1.40;;;;;;;;;;5071723;28;20028;-67
2022/10/08 08:59:45;;;;;;;5.20;1.50;;;;;;;;;;5071129;28;20049;-67
2022/10/08 09:02:37;;;;;;;8.02;1.58;;;;;;;;;;5060804;28;20045;-67
2022/10/08 09:05:06;;;;;;;8.50;1.30;;;;;;;;;;5063584;28;20067;-67
2022/10/08 09:07:41;;;;;;;6.03;1.30;;;;;;;;;;5066630;28;20047;-67
2022/10/08 09:10:10;;;;;;;7.68;1.15;;;;;;;;;;5070320;28;20055;-67
2022/10/08 09:12:38;;;;;;;8.70;1.42;;;;;;;;;;5069374;28;20513;-67
2022/10/08 09:15:04;;;;;;;6.13;1.40;;;;;;;;;;5068723;28;20044;-67
2022/10/08 09:17:32;;;;;;;10.13;2.08;;;;;;;;;;5064377;28;20067;-67
2022/10/08 09:19:59;;;;;;;4.20;1.23;;;;;;;;;;5067512;28;20029;-67
2022/10/08 09:22:35;;;;;;;4.57;1.20;;;;;;;;;;5069338;28;20040;-67
2022/10/08 09:25:05;;;;;;;6.22;1.55;;;;;;;;;;5065309;28;20120;-68
2022/10/08 09:27:48;;;;;;;8.95;1.70;;;;;;;;;;5067443;28;20040;-67
2022/10/08 09:30:40;;;;;;;6.50;1.38;;;;;;;;;;5069684;28;20048;-67
2022/10/08 09:33:12;;;;;;;8.32;1.27;;;;;;;;;;5068043;28;20040;-67
2022/10/08 09:35:42;;;;;;;7.32;1.60;;;;;;;;;;5062949;28;20482;-68
2022/10/08 09:38:18;;;;;;;6.10;1.20;;;;;;;;;;5069880;28;20547;-67
2022/10/08 09:40:58;;;;;;;7.90;1.30;;;;;;;;;;5068829;28;20544;-68
2022/10/08 09:43:24;;;;;;;6.65;1.05;;;;;;;;;;5068110;28;20037;-68
2022/10/08 09:45:50;;;;;;;6.88;1.20;;;;;;;;;;5057644;28;20502;-68
2022/10/08 09:48:22;;;;;;;6.40;1.00;;;;;;;;;;5062111;28;20040;-68
2022/10/08 09:50:50;;;;;;;5.75;0.95;;;;;;;;;;5066745;28;20051;-68
2022/10/08 09:53:16;;;;;;;5.68;1.00;;;;;;;;;;5065969;28;20498;-68
2022/10/08 09:55:49;;;;;;;5.53;1.58;;;;;;;;;;5066588;28;20041;-68
2022/10/08 09:58:17;;;;;;;8.00;1.50;;;;;;;;;;5068732;28;20040;-69
2022/10/08 10:00:43;;;;;;;7.95;1.13;;;;;;;;;;5070352;28;20033;-69
2022/10/08 10:03:16;;;;;;;5.00;1.08;;;;;;;;;;5069734;28;20379;-68
2022/10/08 10:05:42;;;;;;;10.65;1.42;;;;;;;;;;5071956;28;20540;-68
2022/10/08 10:08:27;;;;;;;6.13;1.00;;;;;;;;;;5070539;28;20507;-67
2022/10/08 10:10:54;;;;;;;5.97;0.77;;;;;;;;;;5061291;28;20041;-69
2022/10/08 10:13:23;;;;;;;6.28;1.05;;;;;;;;;;5069902;28;20490;-68
2022/10/08 10:15:53;;;;;;;5.38;1.10;;;;;;;;;;5070830;28;20036;-68
2022/10/08 10:18:21;;;;;;;6.60;1.00;;;;;;;;;;5066249;28;20033;-68
2022/10/08 10:20:50;;;;;;;6.82;1.00;;;;;;;;;;5064153;28;20440;-68
2022/10/08 10:23:25;;;;;;;6.25;1.05;;;;;;;;;;5068445;28;20582;-68
2022/10/08 10:25:54;;;;;;;7.97;1.20;;;;;;;;;;5069885;28;20406;-68
2022/10/08 10:28:28;;;;;;;5.95;1.13;;;;;;;;;;5070352;28;20474;-68
2022/10/08 10:31:00;;;;;;;5.15;0.95;;;;;;;;;;5066670;28;20082;-69
2022/10/08 10:33:27;;;;;;;4.85;1.00;;;;;;;;;;5070451;28;20063;-69
2022/10/08 10:35:58;;;;;;;8.10;1.45;;;;;;;;;;5069029;28;20036;-68
2022/10/08 10:38:32;;;;;;;5.80;0.80;;;;;;;;;;5069679;28;20103;-68
2022/10/08 10:40:58;;;;;;;3.38;0.82;;;;;;;;;;5082637;28;20094;-67
2022/10/08 10:43:42;;;;;;;4.75;0.90;;;;;;;;;;5067095;28;20079;-68
2022/10/08 10:46:18;;;;;;;6.05;0.85;;;;;;;;;;5070624;28;20040;-67
2022/10/08 10:48:44;;;;;;;7.75;1.27;;;;;;;;;;5071353;28;20150;-66
2022/10/08 10:51:15;;;;;;;6.03;1.20;;;;;;;;;;5069479;28;20067;-66
2022/10/08 10:53:41;;;;;;;4.03;1.02;;;;;;;;;;5069614;28;20051;-65
2022/10/08 10:56:16;;;;;;;7.70;1.13;;;;;;;;;;5069396;28;20028;-66
2022/10/08 10:58:58;;;;;;;6.40;1.17;;;;;;;;;;5068594;28;20041;-66
2022/10/08 11:01:34;;;;;;;7.38;1.35;;;;;;;;;;5071102;28;20040;-66
2022/10/08 11:04:07;;;;;;;5.68;0.90;;;;;;;;;;5075688;28;20044;-66
2022/10/08 11:06:36;;;;;;;4.90;0.90;;;;;;;;;;5067784;28;20048;-67
2022/10/08 11:09:06;;;;;;;4.68;0.95;;;;;;;;;;5063916;28;20045;-66
2022/10/08 11:11:40;;;;;;;5.18;0.88;;;;;;;;;;5065423;28;20036;-66
2022/10/08 11:14:06;;;;;;;3.75;0.77;;;;;;;;;;5073664;28;20048;-67
2022/10/08 11:16:39;;;;;;;4.88;1.02;;;;;;;;;;5063821;28;20055;-67
2022/10/08 11:19:09;;;;;;;9.85;1.30;;;;;;;;;;5062820;28;20569;-67
2022/10/08 11:21:41;;;;;;;4.38;1.13;;;;;;;;;;5061453;28;20040;-67
2022/10/08 11:24:23;;;;;;;10.23;1.30;;;;;;;;;;5065846;28;20086;-67
2022/10/08 11:26:55;;;;;;;6.53;1.20;;;;;;;;;;5063683;28;20044;-67
2022/10/08 11:29:40;;;;;;;4.43;0.80;;;;;;;;;;5066095;28;20035;-67
2022/10/08 11:32:11;;;;;;;4.60;1.20;;;;;;;;;;5059800;28;20494;-67
2022/10/08 11:34:39;;;;;;;8.00;1.23;;;;;;;;;;5066738;28;20099;-67
2022/10/08 11:37:11;;;;;;;9.73;1.10;;;;;;;;;;5063343;28;20040;-67
2022/10/08 11:39:44;;;;;;;5.07;0.82;;;;;;;;;;5060565;28;20500;-67
2022/10/08 11:42:19;;;;;;;4.63;0.98;;;;;;;;;;5070096;28;20540;-67
2022/10/08 11:44:45;;;;;;;9.57;1.35;;;;;;;;;;5066123;28;20095;-68
2022/10/08 11:47:50;;;;;;;5.25;1.10;;;;;;;;;;5070387;28;20048;-67
2022/10/08 11:50:36;;;;;;;4.63;1.10;;;;;;;;;;5022979;28;20453;-67
2022/10/08 11:53:04;;;;;;;6.68;1.10;;;;;;;;;;5028329;28;20551;-67
2022/10/08 11:55:32;;;;;;;5.80;0.70;;;;;;;;;;5048342;28;20076;-68
2022/10/08 11:58:00;;;;;;;6.07;0.90;;;;;;;;;;5069186;28;20037;-67
2022/10/08 12:00:37;;;;;;;5.53;0.90;;;;;;;;;;5069313;28;20049;-67
2022/10/08 12:03:06;;;;;;;4.93;0.70;;;;;;;;;;5070588;28;20078;-68
2022/10/08 12:05:39;;;;;;;5.50;1.20;;;;;;;;;;5064712;28;20123;-68
2022/10/08 12:08:05;;;;;;;5.60;1.10;;;;;;;;;;5073835;28;20078;-68
2022/10/08 12:10:38;;;;;;;4.88;0.77;;;;;;;;;;5069125;28;20045;-68
2022/10/08 12:13:14;;;;;;;4.68;1.05;;;;;;;;;;5068237;28;20029;-68
2022/10/08 12:15:41;;;;;;;13.50;1.45;;;;;;;;;;5070930;28;20102;-68
2022/10/08 12:18:12;;;;;;;5.00;0.80;;;;;;;;;;5070463;28;20048;-68
2022/10/08 12:20:39;;;;;;;4.97;0.88;;;;;;;;;;5065345;28;20040;-67
2022/10/08 12:23:05;;;;;;;7.80;0.85;;;;;;;;;;5067123;28;20044;-67
2022/10/08 12:25:37;;;;;;;9.77;1.33;;;;;;;;;;5067959;28;20037;-67
2022/10/08 12:28:19;;;;;;;6.72;1.17;;;;;;;;;;5073194;28;20044;-67
2022/10/08 12:30:48;;;;;;;6.57;0.80;;;;;;;;;;5066433;28;20051;-67
2022/10/08 12:33:14;;;;;;;4.85;1.00;;;;;;;;;;5064117;28;20041;-67
2022/10/08 12:35:56;;;;;;;5.70;0.95;;;;;;;;;;5071589;28;20040;-67
2022/10/08 12:38:33;;;;;;;4.38;0.70;;;;;;;;;;5073578;28;20127;-67
2022/10/08 12:41:20;;;;;;;5.00;1.10;;;;;;;;;;5073275;28;20036;-68
2022/10/08 12:43:55;;;;;;;3.97;0.95;;;;;;;;;;5071187;28;20075;-68
2022/10/08 12:46:46;;;;;;;9.73;1.25;;;;;;;;;;5070422;28;20402;-69
2022/10/08 12:49:31;;;;;;;9.10;1.35;;;;;;;;;;5068870;28;20045;-68
2022/10/08 12:52:03;;;;;;;3.92;1.00;;;;;;;;;;5072083;28;20052;-68
2022/10/08 12:54:29;;;;;;;4.57;0.85;;;;;;;;;;5065987;28;20044;-68
2022/10/08 12:56:56;;;;;;;10.65;1.27;;;;;;;;;;5069028;28;20040;-68
2022/10/08 12:59:23;;;;;;;5.13;0.85;;;;;;;;;;5072761;28;20379;-69
2022/10/08 13:01:52;;;;;;;6.63;0.80;;;;;;;;;;5068574;28;20368;-68
2022/10/08 13:04:19;;;;;;;9.57;1.17;;;;;;;;;;5068043;28;20045;-68
2022/10/08 13:06:47;;;;;;;7.05;1.00;;;;;;;;;;5070120;28;20036;-68
2022/10/08 13:09:17;;;;;;;6.78;1.10;;;;;;;;;;5064460;28;20055;-68
2022/10/08 13:11:43;;;;;;;6.05;0.95;;;;;;;;;;5072652;28;20047;-68
2022/10/08 13:14:22;;;;;;;7.75;0.95;;;;;;;;;;5070543;28;20029;-68
2022/10/08 13:16:48;;;;;;;7.50;1.35;;;;;;;;;;5070193;28;20041;-68
2022/10/08 13:19:17;;;;;;;8.23;1.35;;;;;;;;;;5072478;28;20086;-68
2022/10/08 13:21:53;;;;;;;7.07;1.20;;;;;;;;;;5071338;28;20044;-68
2022/10/08 13:24:19;;;;;;;6.03;1.08;;;;;;;;;;5062828;28;20032;-68
2022/10/08 13:26:50;;;;;;;4.63;1.10;;;;;;;;;;5072445;28;20039;-68
2022/10/08 13:29:16;;;;;;;;;;;;;;;;;;5072385;28;20116;-68
2022/10/08 13:31:43;;;;;;;7.30;1.10;;;;;;;;;;5070559;28;20031;-68
2022/10/08 13:34:17;;;;;;;4.85;0.80;;;;;;;;;;5072778;28;20037;-69
2022/10/08 13:36:51;;;;;;;5.22;1.30;;;;;;;;;;5071041;28;20040;-67
2022/10/08 13:39:21;;;;;;;3.85;1.10;;;;;;;;;;5070450;28;20049;-68
2022/10/08 13:41:51;;;;;;;5.53;1.00;;;;;;;;;;5070153;28;20036;-68
2022/10/08 13:44:17;;;;;;;4.13;0.93;;;;;;;;;;5069092;28;20120;-68
2022/10/08 13:46:43;;;;;;;5.82;0.85;;;;;;;;;;5067614;28;20573;-68
2022/10/08 13:49:20;;;;;;;5.55;1.08;;;;;;;;;;5070865;28;20033;-68
2022/10/08 13:51:46;;;;;;;4.57;0.82;;;;;;;;;;5070948;28;20025;-68
2022/10/08 13:54:13;;;;;;;5.13;1.10;;;;;;;;;;5068433;28;20039;-69
2022/10/08 13:56:39;;;;;;;3.50;0.70;;;;;;;;;;5071943;28;20044;-69
2022/10/08 13:59:05;;;;;;;4.13;0.80;;;;;;;;;;5072099;28;20107;-68
2022/10/08 14:01:31;;;;;;;6.68;0.93;;;;;;;;;;5061704;28;20384;-69
2022/10/08 14:03:57;;;;;;;7.72;1.20;;;;;;;;;;5061639;28;20063;-68
2022/10/08 14:06:23;;;;;;;4.95;1.00;;;;;;;;;;5062753;28;20048;-69
2022/10/08 14:08:49;;;;;;;5.25;0.90;;;;;;;;;;5065390;28;20036;-68
2022/10/08 14:11:16;;;;;;;5.75;0.93;;;;;;;;;;5068863;28;20068;-69
2022/10/08 14:13:42;;;;;;;5.60;0.90;;;;;;;;;;5065990;28;20123;-68
2022/10/08 14:16:10;;;;;;;5.20;1.00;;;;;;;;;;5067409;28;20048;-69
2022/10/08 14:18:36;;;;;;;4.35;0.73;;;;;;;;;;5063112;28;20486;-68
2022/10/08 14:21:02;;;;;;;4.40;0.63;;;;;;;;;;5064938;28;20070;-69
2022/10/08 14:23:28;;;;;;;4.78;1.08;;;;;;;;;;5067522;28;20058;-68
2022/10/08 14:25:54;;;;;;;8.25;1.10;;;;;;;;;;5065890;28;20048;-69
2022/10/08 14:28:20;;;;;;;4.60;0.80;;;;;;;;;;5068721;28;20067;-69
2022/10/08 14:30:46;;;;;;;6.28;0.90;;;;;;;;;;5066116;28;20120;-69
2022/10/08 14:33:12;;;;;;;3.28;0.80;;;;;;;;;;5064605;28;20032;-70
2022/10/08 14:35:38;;;;;;;6.18;1.10;;;;;;;;;;5068453;28;20397;-68
2022/10/08 14:38:04;;;;;;;3.78;1.02;;;;;;;;;;5067649;28;20047;-68
2022/10/08 14:40:30;;;;;;;3.88;1.05;;;;;;;;;;5066596;28;20032;-69
2022/10/08 14:42:56;;;;;;;3.88;0.85;;;;;;;;;;5068198;28;20044;-66
2022/10/08 14:45:22;;;;;;;5.55;1.02;;;;;;;;;;5064554;28;20044;-66
2022/10/08 14:47:48;;;;;;;7.55;1.05;;;;;;;;;;5064318;28;20535;-66
2022/10/08 14:50:14;;;;;;;2.55;0.70;;;;;;;;;;5065241;28;20451;-66
2022/10/08 14:52:40;;;;;;;7.15;0.90;;;;;;;;;;5058880;28;20682;-66
2022/10/08 14:55:07;;;;;;;4.80;1.10;;;;;;;;;;5061651;28;20129;-66